Time;durP1;ratioP1;P1;durP2;ratioP2;P2;SDS_P1;SDS_P2;PMS_P1;PMS_P2;Temp;Humidity;BMP_temperature;BMP_pressure;BME280_temperature;BME280_humidity;BME280_pressure;Samples;Min_cycle;Max_cycle;Signal;HPM_P1;HPM_P2
2023/05/23 00:02:21;;;;;;;12.35;8.82;;;19.00;77.00;;;18.33;61.27;100621.81;5067417;28;20068;-80
2023/05/23 00:04:49;;;;;;;11.23;8.13;;;19.00;77.00;;;18.33;61.01;100623.69;5070099;28;20054;-79
2023/05/23 00:07:18;;;;;;;10.90;7.53;;;18.90;77.00;;;18.32;60.59;100622.06;5069816;28;20056;-80
2023/05/23 00:09:45;;;;;;;9.90;6.85;;;18.90;76.70;;;18.29;60.37;100620.69;5068867;28;20040;-79
2023/05/23 00:12:12;;;;;;;9.65;6.53;;;18.90;76.20;;;18.26;60.02;100613.94;5059164;28;20098;-80
2023/05/23 00:14:39;;;;;;;8.07;6.07;;;18.90;76.20;;;18.25;60.29;100633.06;5059967;28;20507;-80
2023/05/23 00:17:07;;;;;;;11.40;6.70;;;18.80;76.00;;;18.22;60.32;100625.50;5066683;28;20068;-80
2023/05/23 00:19:35;;;;;;;7.40;5.70;;;18.80;76.10;;;18.20;60.20;100633.03;5059934;28;20048;-79
2023/05/23 00:22:02;;;;;;;8.80;5.95;;;18.80;76.10;;;18.20;60.20;100633.03;5068108;28;20055;-80
2023/05/23 00:24:30;;;;;;;8.63;5.90;;;18.80;76.40;;;18.17;60.48;100642.47;5069232;28;20157;-80
2023/05/23 00:26:58;;;;;;;10.23;5.93;;;18.80;76.40;;;18.14;60.44;100645.69;5062097;28;20120;-79
2023/05/23 00:29:25;;;;;;;7.55;5.28;;;18.80;76.40;;;18.12;60.30;100638.94;5066575;28;20036;-80
2023/05/23 00:31:52;;;;;;;9.15;5.28;;;18.70;76.20;;;18.10;60.05;100636.47;5045584;28;20576;-79
2023/05/23 00:34:19;;;;;;;8.05;5.25;;;18.70;76.20;;;18.09;60.14;100644.81;5067100;28;20071;-80
2023/05/23 00:36:49;;;;;;;7.68;5.30;;;18.70;76.00;;;18.07;60.08;100644.28;5069692;28;20083;-79
2023/05/23 00:39:18;;;;;;;7.90;5.15;;;18.70;76.10;;;17.99;60.22;100640.16;5060083;28;20434;-80
2023/05/23 00:41:49;;;;;;;7.90;4.90;;;18.60;76.00;;;17.99;59.86;100643.66;5033228;28;20045;-79
2023/05/23 00:44:16;;;;;;;5.93;4.33;;;18.60;76.00;;;17.93;59.72;100647.38;5039623;28;20051;-79
2023/05/23 00:46:47;;;;;;;7.65;4.60;;;18.50;75.80;;;17.93;60.00;100647.38;5042727;28;20098;-79
2023/05/23 00:49:18;;;;;;;8.77;5.03;;;18.50;76.00;;;17.92;59.81;100645.78;5033741;28;20048;-80
2023/05/23 00:51:48;;;;;;;6.95;4.90;;;18.50;75.80;;;17.91;59.90;100651.41;5061920;28;20456;-79
2023/05/23 00:54:18;;;;;;;6.28;4.63;;;18.50;75.90;;;17.87;60.07;100650.31;5034070;28;20036;-79
2023/05/23 00:56:47;;;;;;;7.25;4.63;;;18.50;76.00;;;17.85;60.04;100655.94;5069193;28;20036;-79
2023/05/23 00:59:15;;;;;;;7.05;4.68;;;18.50;76.00;;;17.87;59.88;100661.91;5067370;28;20044;-79
2023/05/23 01:01:45;;;;;;;7.00;4.90;;;18.50;75.90;;;17.88;59.98;100660.84;5056278;28;20490;-80
2023/05/23 01:04:13;;;;;;;6.75;4.75;;;18.50;75.90;;;17.88;60.07;100662.72;5045832;28;20138;-79
2023/05/23 01:06:41;;;;;;;7.53;4.95;;;18.50;76.00;;;17.88;59.90;100655.44;5060803;28;20106;-79
2023/05/23 01:09:09;;;;;;;9.15;4.88;;;18.50;75.80;;;17.87;59.94;100655.69;5038777;28;20148;-79
2023/05/23 01:11:47;;;;;;;8.57;5.20;;;18.40;75.70;;;17.88;59.81;100652.75;5063168;28;20564;-79
2023/05/23 01:14:24;;;;;;;8.43;5.13;;;18.50;76.00;;;17.87;59.95;100653.81;5066881;28;20121;-80
2023/05/23 01:16:58;;;;;;;7.75;4.82;;;18.50;75.90;;;17.87;59.98;100656.50;5050998;28;20105;-79
2023/05/23 01:19:54;;;;;;;8.43;4.40;;;18.50;75.90;;;17.88;59.89;100647.34;5049603;28;20045;-79
2023/05/23 01:22:38;;;;;;;7.72;4.60;;;18.50;76.00;;;17.87;60.06;100655.69;5051861;28;20093;-79
2023/05/23 01:25:20;;;;;;;8.07;4.60;;;18.50;76.20;;;17.87;59.95;100659.22;5037958;28;20127;-79
2023/05/23 01:27:57;;;;;;;6.68;4.50;;;18.50;76.10;;;17.86;60.18;100654.88;5033591;28;20044;-79
2023/05/23 01:30:26;;;;;;;8.55;4.47;;;18.50;76.10;;;17.83;59.76;100654.56;5055529;28;20150;-79
2023/05/23 01:32:56;;;;;;;7.30;4.22;;;18.40;75.60;;;17.81;59.83;100660.22;5064079;28;20051;-79
2023/05/23 01:35:26;;;;;;;10.82;4.75;;;18.40;75.80;;;17.81;59.65;100656.69;5067648;28;20532;-79
2023/05/23 01:37:54;;;;;;;6.97;4.30;;;18.40;76.00;;;17.77;59.90;100659.13;5049824;28;20055;-79
2023/05/23 01:40:23;;;;;;;8.10;4.60;;;18.40;75.90;;;17.80;59.97;100653.19;5039941;28;20172;-79
2023/05/23 01:42:52;;;;;;;7.95;4.75;;;18.40;76.00;;;17.81;60.12;100656.69;5049334;28;20527;-79
2023/05/23 01:45:20;;;;;;;9.00;5.00;;;18.40;76.10;;;17.79;60.01;100656.97;5047064;28;20140;-79
2023/05/23 01:47:49;;;;;;;8.32;4.95;;;18.40;76.00;;;17.79;60.00;100656.16;5047678;28;20049;-79
2023/05/23 01:50:18;;;;;;;8.27;4.38;;;18.40;76.00;;;17.79;60.19;100659.66;5051853;28;20048;-80
2023/05/23 01:52:47;;;;;;;8.88;4.80;;;18.40;76.20;;;17.77;59.90;100656.41;5049116;28;20106;-79
2023/05/23 01:55:21;;;;;;;7.32;4.88;;;18.40;76.00;;;17.79;60.19;100653.44;5050124;28;20538;-80
2023/05/23 01:57:54;;;;;;;8.65;4.57;;;18.40;76.20;;;17.79;60.15;100656.97;5043132;28;20045;-79
2023/05/23 02:00:22;;;;;;;6.90;4.47;;;18.40;76.20;;;17.79;60.23;100653.44;5040119;28;20045;-79
2023/05/23 02:02:49;;;;;;;8.50;4.45;;;18.40;76.10;;;17.82;60.33;100661.88;5047671;28;20048;-79
2023/05/23 02:05:17;;;;;;;9.20;4.70;;;18.40;76.40;;;17.83;60.54;100663.47;5041016;28;20053;-80
2023/05/23 02:07:45;;;;;;;8.07;5.32;;;18.40;76.50;;;17.84;60.55;100669.69;5050315;28;20052;-79
2023/05/23 02:10:13;;;;;;;8.13;5.70;;;18.50;76.70;;;17.82;60.55;100669.97;5047759;28;20133;-79
2023/05/23 02:12:40;;;;;;;11.07;6.25;;;18.50;76.70;;;17.82;60.58;100671.84;5038818;28;20147;-79
2023/05/23 02:15:10;;;;;;;10.52;5.93;;;18.40;76.60;;;17.80;60.67;100674.78;5047791;28;20083;-79
2023/05/23 02:17:37;;;;;;;9.68;6.25;;;18.40;76.60;;;17.75;61.00;100672.03;5040696;28;20041;-79
2023/05/23 02:20:07;;;;;;;12.77;6.25;;;18.40;76.90;;;17.75;60.86;100661.22;5037120;28;20047;-80
2023/05/23 02:22:35;;;;;;;10.35;6.47;;;18.40;76.80;;;17.77;60.73;100669.91;5055190;28;20045;-79
2023/05/23 02:25:02;;;;;;;10.05;5.93;;;18.40;76.90;;;17.78;61.07;100671.53;5060980;22;20045;-84
2023/05/23 02:27:30;;;;;;;8.57;6.10;;;18.40;76.80;;;17.80;61.23;100668.56;5073638;28;20097;-85
2023/05/23 02:29:57;;;;;;;11.60;6.15;;;18.40;77.00;;;17.80;61.17;100672.06;5052392;28;20139;-85
2023/05/23 02:32:26;;;;;;;9.45;5.72;;;18.40;77.20;;;17.78;61.02;100671.53;5077389;28;20123;-85
2023/05/23 02:34:53;;;;;;;10.52;5.68;;;18.40;77.00;;;17.77;61.33;100672.59;5079882;28;20044;-84
2023/05/23 02:37:20;;;;;;;11.18;6.60;;;18.40;77.10;;;17.76;61.26;100673.66;5072110;28;20082;-85
2023/05/23 02:39:48;;;;;;;12.68;7.05;;;18.40;77.10;;;17.75;61.20;100686.31;5070052;28;20518;-84
2023/05/23 02:42:15;;;;;;;8.93;6.35;;;18.40;77.20;;;17.76;61.25;100684.44;5062121;28;20040;-85
2023/05/23 02:44:43;;;;;;;13.10;6.50;;;18.40;77.20;;;17.73;61.50;100674.97;5054704;28;20137;-84
2023/05/23 02:47:10;;;;;;;14.88;7.25;;;18.40;77.30;;;17.75;61.17;100674.72;5055343;28;20145;-85
2023/05/23 02:49:38;;;;;;;11.60;6.30;;;18.30;77.30;;;17.73;61.31;100682.25;5068642;28;20147;-85
2023/05/23 02:52:07;;;;;;;9.73;5.82;;;18.40;77.20;;;17.71;61.14;100681.66;5067282;28;20085;-84
2023/05/23 02:54:35;;;;;;;8.50;5.25;;;18.30;77.00;;;17.71;61.36;100687.06;5077748;28;20552;-84
2023/05/23 02:57:03;;;;;;;11.77;6.43;;;18.30;77.20;;;17.70;61.16;100697.03;5064335;28;20036;-85
2023/05/23 02:59:33;;;;;;;11.02;6.00;;;18.30;77.20;;;17.64;61.14;100689.16;5065455;28;20048;-85
2023/05/23 03:02:01;;;;;;;11.70;6.03;;;18.30;77.20;;;17.67;61.02;100694.03;5070928;28;20511;-85
2023/05/23 03:04:28;;;;;;;10.25;5.88;;;18.30;77.00;;;17.67;60.72;100692.16;5069599;28;20424;-85
2023/05/23 03:06:58;;;;;;;10.70;5.78;;;18.30;76.80;;;17.68;60.55;100696.47;5071291;28;20102;-84
2023/05/23 03:09:25;;;;;;;11.98;5.85;;;18.30;76.40;;;17.68;60.51;100687.56;5072831;28;20139;-85
2023/05/23 03:11:53;;;;;;;10.35;5.57;;;18.30;76.40;;;17.66;60.26;100700.47;5097566;28;20055;-84
2023/05/23 03:14:20;;;;;;;12.05;5.72;;;18.30;76.20;;;17.66;60.38;100706.69;5091616;28;20044;-85
2023/05/23 03:16:49;;;;;;;10.45;4.85;;;18.20;76.20;;;17.66;60.24;100705.88;5072505;28;20048;-85
2023/05/23 03:19:16;;;;;;;9.60;4.70;;;18.30;76.40;;;17.66;59.87;100695.09;5064657;28;20097;-85
2023/05/23 03:21:44;;;;;;;9.85;4.68;;;18.20;76.00;;;17.64;60.02;100699.94;5066764;28;20112;-85
2023/05/23 03:24:12;;;;;;;8.05;4.57;;;18.20;75.80;;;17.59;59.92;100689.09;5091682;28;20410;-84
2023/05/23 03:26:39;;;;;;;8.40;4.70;;;18.20;75.90;;;17.57;59.95;100699.28;5079432;28;20048;-85
2023/05/23 03:29:06;;;;;;;10.07;4.72;;;18.20;76.00;;;17.57;59.93;100702.84;5089806;28;20050;-85
2023/05/23 03:31:34;;;;;;;11.32;5.28;;;18.20;75.90;;;17.57;59.92;100704.69;5079844;28;20485;-85
2023/05/23 03:34:01;;;;;;;9.57;4.63;;;18.20;76.00;;;17.55;60.02;100709.53;5081361;28;20063;-85
2023/05/23 03:36:28;;;;;;;9.60;5.22;;;18.10;76.20;;;17.53;60.21;100714.38;5063121;28;20056;-84
2023/05/23 03:38:55;;;;;;;11.77;5.45;;;18.10;76.30;;;17.47;60.16;100703.53;5064921;28;20130;-83
2023/05/23 03:41:25;;;;;;;11.57;5.60;;;18.10;76.40;;;17.45;60.33;100724.50;5077437;28;20037;-80
2023/05/23 03:43:52;;;;;;;12.25;5.35;;;18.10;76.40;;;17.45;60.45;100713.72;5077461;28;20675;-80
2023/05/23 03:46:19;;;;;;;9.20;5.47;;;18.10;76.60;;;17.42;60.53;100724.19;5053658;28;20040;-79
2023/05/23 03:48:46;;;;;;;12.32;5.43;;;18.00;76.40;;;17.41;60.66;100719.88;5089111;28;20374;-79
2023/05/23 03:51:14;;;;;;;11.32;5.70;;;18.00;76.60;;;17.40;60.92;100720.94;5060843;28;20047;-79
2023/05/23 03:53:42;;;;;;;10.15;5.88;;;18.00;77.00;;;17.37;61.11;100729.53;5071105;28;20515;-79
2023/05/23 03:56:10;;;;;;;12.65;6.13;;;18.00;77.00;;;17.36;61.24;100738.69;5086621;28;20040;-79
2023/05/23 03:58:38;;;;;;;12.05;5.88;;;18.00;77.20;;;17.37;61.25;100734.91;5060504;28;20036;-79
2023/05/23 04:01:12;;;;;;;9.93;5.97;;;18.00;77.20;;;17.39;61.60;100738.19;5078396;28;20428;-79
2023/05/23 04:03:40;;;;;;;12.20;6.45;;;18.00;77.50;;;17.37;61.49;100746.53;5086245;28;20094;-80
2023/05/23 04:06:08;;;;;;;13.10;7.15;;;18.00;77.60;;;17.39;61.70;100754.38;5060748;28;20161;-79
2023/05/23 04:08:40;;;;;;;9.68;6.50;;;18.00;77.60;;;17.39;61.99;100748.97;5065062;28;20048;-79
2023/05/23 04:11:08;;;;;;;14.50;6.90;;;18.00;78.10;;;17.38;62.26;100742.78;5063783;28;20040;-79
2023/05/23 04:13:38;;;;;;;12.48;6.32;;;18.00;78.40;;;17.39;62.48;100746.28;5068741;28;20040;-79
2023/05/23 04:16:06;;;;;;;13.32;6.80;;;18.00;78.60;;;17.38;62.79;100744.66;5079714;28;20048;-80
2023/05/23 04:18:34;;;;;;;15.10;6.68;;;18.00;78.80;;;17.36;62.92;100747.59;5086451;28;20048;-80
2023/05/23 04:21:02;;;;;;;13.57;6.63;;;18.00;79.00;;;17.33;63.07;100745.41;5066672;28;20049;-80
2023/05/23 04:23:30;;;;;;;12.20;6.88;;;18.00;79.00;;;17.32;63.06;100757.22;5057128;28;20114;-79
2023/05/23 04:25:58;;;;;;;14.63;7.40;;;18.00;79.10;;;17.31;63.11;100754.78;5073154;28;20492;-79
2023/05/23 04:28:27;;;;;;;14.10;7.07;;;18.00;79.20;;;17.29;63.21;100749.66;5074032;28;20044;-80
2023/05/23 04:30:57;;;;;;;16.02;7.70;;;17.90;79.20;;;17.29;63.10;100748.84;5076673;28;20054;-80
2023/05/23 04:33:29;;;;;;;16.63;8.00;;;17.90;79.20;;;17.28;63.05;100758.00;5063541;28;20136;-80
2023/05/23 04:35:57;;;;;;;15.05;6.63;;;17.90;79.20;;;17.26;62.92;100755.53;5068400;28;20086;-80
2023/05/23 04:38:24;;;;;;;14.50;7.28;;;17.90;79.20;;;17.26;62.98;100758.22;5060876;28;20056;-79
2023/05/23 04:40:52;;;;;;;12.75;7.47;;;17.90;79.00;;;17.28;63.09;100766.09;5075549;28;20057;-80
2023/05/23 04:43:41;;;;;;;12.55;7.32;;;17.90;79.30;;;17.27;63.27;100757.16;5086888;28;20074;-79
2023/05/23 04:46:40;;;;;;;15.93;7.57;;;17.90;79.40;;;17.24;63.01;100761.19;5087775;28;20486;-78
2023/05/23 04:49:32;;;;;;;15.68;7.20;;;17.90;79.30;;;17.24;62.99;100754.97;5058726;28;20051;-80
2023/05/23 04:52:00;;;;;;;14.05;7.40;;;17.90;79.20;;;17.25;63.17;100754.72;5056443;28;20477;-80
2023/05/23 04:54:30;;;;;;;13.45;7.75;;;17.90;79.40;;;17.24;62.92;100760.38;5054354;28;20050;-80
2023/05/23 04:56:59;;;;;;;16.65;7.95;;;17.80;79.20;;;17.21;62.86;100758.97;5058229;28;20264;-79
2023/05/23 04:59:28;;;;;;;16.10;8.48;;;17.90;79.30;;;17.18;63.00;100759.47;5069650;28;20032;-80
2023/05/23 05:01:56;;;;;;;15.00;7.70;;;17.80;79.40;;;17.16;63.28;100771.56;5059654;28;20067;-79
2023/05/23 05:04:24;;;;;;;13.00;6.97;;;17.80;79.60;;;17.13;63.34;100777.44;5053900;28;20052;-79
2023/05/23 05:06:52;;;;;;;15.02;8.15;;;17.80;79.60;;;17.12;63.44;100770.41;5076896;28;20583;-79
2023/05/23 05:09:20;;;;;;;14.68;7.75;;;17.80;79.60;;;17.10;63.19;100778.75;5061794;28;20086;-79
2023/05/23 05:11:49;;;;;;;15.45;7.80;;;17.80;79.40;;;17.13;63.18;100772.03;5061640;28;20064;-79
2023/05/23 05:14:16;;;;;;;14.95;7.95;;;17.70;79.50;;;17.13;63.49;100777.44;5060456;28;20145;-80
2023/05/23 05:16:45;;;;;;;14.07;7.95;;;17.80;79.60;;;17.13;63.30;100772.88;5062562;28;20048;-80
2023/05/23 05:19:14;;;;;;;14.00;7.40;;;17.80;79.50;;;17.14;63.30;100773.69;5067576;28;20097;-79
2023/05/23 05:21:41;;;;;;;17.98;7.80;;;17.70;79.60;;;17.16;63.38;100790.44;5066330;28;20048;-80
2023/05/23 05:24:09;;;;;;;12.68;7.80;;;17.80;79.50;;;17.15;63.19;100786.91;5066523;28;20047;-80
2023/05/23 05:26:37;;;;;;;14.38;8.30;;;17.80;79.40;;;17.15;63.14;100791.50;5048233;28;20409;-80
2023/05/23 05:29:04;;;;;;;15.57;8.70;;;17.80;79.40;;;17.12;63.30;100791.97;5063047;28;20480;-80
2023/05/23 05:31:32;;;;;;;18.20;9.15;;;17.70;79.50;;;17.12;63.42;100791.97;5049640;28;20051;-79
2023/05/23 05:33:59;;;;;;;17.35;8.95;;;17.70;79.60;;;17.14;63.70;100806.03;5062894;28;20147;-79
2023/05/23 05:36:30;;;;;;;17.67;9.57;;;17.80;79.70;;;17.10;63.54;100808.41;5061227;28;20044;-79
2023/05/23 05:38:58;;;;;;;18.33;9.00;;;17.70;80.00;;;17.11;63.56;100806.53;5067960;28;20052;-79
2023/05/23 05:41:26;;;;;;;13.35;9.15;;;17.70;79.90;;;17.09;63.75;100804.09;5068536;28;20568;-79
2023/05/23 05:43:54;;;;;;;22.17;10.27;;;17.70;80.00;;;17.05;63.79;100815.59;5063463;28;20036;-80
2023/05/23 05:46:22;;;;;;;21.23;10.30;;;17.70;80.00;;;17.02;63.65;100810.69;5057217;28;20068;-80
2023/05/23 05:48:50;;;;;;;18.05;9.73;;;17.70;79.80;;;17.02;63.70;100814.19;5057584;28;20063;-79
2023/05/23 05:51:18;;;;;;;17.15;9.48;;;17.70;80.00;;;17.05;63.89;100812.91;5066356;28;20048;-79
2023/05/23 05:53:48;;;;;;;16.90;9.00;;;17.70;80.00;;;17.05;63.83;100819.09;5067160;28;20496;-79
2023/05/23 05:56:16;;;;;;;16.65;9.25;;;17.70;80.00;;;17.03;63.69;100806.94;5062335;28;20051;-79
2023/05/23 05:58:43;;;;;;;18.25;8.98;;;17.70;80.00;;;17.05;63.66;100819.09;5051634;28;20041;-79
2023/05/23 06:01:13;;;;;;;17.70;9.90;;;17.70;79.80;;;17.06;63.44;100817.22;5064724;28;20049;-79
2023/05/23 06:03:42;;;;;;;14.65;8.18;;;17.70;79.70;;;17.07;63.40;100816.16;5066108;28;20048;-79
2023/05/23 06:06:09;;;;;;;14.57;8.40;;;17.70;79.70;;;17.07;63.53;100816.97;5060392;28;20044;-79
2023/05/23 06:08:39;;;;;;;15.38;8.88;;;17.70;79.70;;;17.09;63.70;100819.44;5065531;28;20047;-79
2023/05/23 06:11:11;;;;;;;16.10;8.88;;;17.70;79.80;;;17.08;63.48;100815.94;5065267;28;20052;-80
2023/05/23 06:13:39;;;;;;;16.08;9.15;;;17.70;79.80;;;17.08;63.51;100821.31;5055510;28;20048;-79
2023/05/23 06:16:06;;;;;;;15.95;8.93;;;17.70;79.80;;;17.07;63.37;100813.47;5068479;28;20070;-79
2023/05/23 06:18:34;;;;;;;14.65;8.10;;;17.70;79.60;;;17.03;63.37;100818.56;5068254;28;20040;-79
2023/05/23 06:21:01;;;;;;;15.32;8.68;;;17.70;79.60;;;17.03;63.39;100815.84;5068873;28;20454;-80
2023/05/23 06:23:28;;;;;;;14.38;8.45;;;17.70;79.60;;;17.04;63.26;100817.47;5053002;28;20090;-80
2023/05/23 06:25:56;;;;;;;17.85;8.77;;;17.70;79.50;;;17.06;63.09;100819.91;5060668;28;20052;-77
2023/05/23 06:28:24;;;;;;;15.35;7.90;;;17.70;79.40;;;17.09;63.27;100822.94;5069152;28;20076;-80
2023/05/23 06:30:52;;;;;;;13.70;7.90;;;17.70;79.50;;;17.06;63.29;100828.00;5057791;28;20036;-79
2023/05/23 06:33:20;;;;;;;16.05;8.48;;;17.70;79.40;;;17.06;63.34;100825.31;5062260;28;20040;-80
2023/05/23 06:35:49;;;;;;;14.90;8.27;;;17.70;79.50;;;17.07;63.29;100829.63;5056449;28;20102;-79
2023/05/23 06:38:16;;;;;;;14.35;8.23;;;17.70;79.50;;;17.03;62.68;100825.78;5086995;28;20052;-79
2023/05/23 06:40:43;;;;;;;14.13;7.25;;;17.70;78.90;;;16.98;62.22;100838.16;5073250;28;20550;-79
2023/05/23 06:43:10;;;;;;;15.40;7.85;;;17.60;78.60;;;16.98;62.63;100843.53;5064277;28;20048;-79
2023/05/23 06:45:55;;;;;;;16.00;7.43;;;17.60;78.90;;;17.01;62.83;100850.31;5053882;28;20591;-79
2023/05/23 06:48:22;;;;;;;17.88;7.95;;;17.60;78.90;;;17.01;62.67;100861.06;5057657;28;20127;-79
2023/05/23 06:50:49;;;;;;;12.02;7.38;;;17.70;78.90;;;16.96;62.48;100848.34;5065832;28;20391;-79
2023/05/23 06:53:18;;;;;;;13.70;7.35;;;17.60;78.60;;;16.95;61.87;100862.88;5073031;28;20078;-79
2023/05/23 06:55:46;;;;;;;13.43;6.68;;;17.60;78.20;;;16.96;61.78;100863.69;5064202;28;20533;-79
2023/05/23 06:58:16;;;;;;;11.63;6.47;;;17.60;77.80;;;16.95;61.68;100860.19;5075140;28;20139;-80
2023/05/23 07:00:43;;;;;;;15.65;6.80;;;17.60;77.80;;;16.94;61.80;100865.81;5064344;28;20567;-80
2023/05/23 07:03:18;;;;;;;11.25;6.85;;;17.60;78.00;;;16.94;61.79;100871.22;5066341;28;20044;-80
2023/05/23 07:05:45;;;;;;;11.48;7.13;;;17.60;77.90;;;16.95;61.67;100872.84;5084683;28;20062;-79
2023/05/23 07:08:12;;;;;;;15.55;7.57;;;17.60;77.90;;;16.94;61.59;100869.34;5068401;28;20045;-78
2023/05/23 07:10:43;;;;;;;13.55;7.38;;;17.60;77.80;;;16.92;61.30;100876.00;5069547;28;20150;-79
2023/05/23 07:13:30;;;;;;;14.80;7.65;;;17.60;77.40;;;16.92;61.15;100882.22;5079222;28;20052;-80
2023/05/23 07:15:58;;;;;;;12.52;7.63;;;17.60;77.40;;;16.91;61.64;100885.97;5071588;28;20054;-79
2023/05/23 07:18:27;;;;;;;15.63;7.50;;;17.50;77.80;;;16.89;61.89;100892.69;5066914;28;20710;-80
2023/05/23 07:20:54;;;;;;;17.00;8.18;;;17.50;78.20;;;16.87;61.58;100882.13;5072686;28;20114;-79
2023/05/23 07:23:24;;;;;;;18.38;8.30;;;17.50;77.80;;;16.88;61.45;100883.75;5073245;28;20143;-79
2023/05/23 07:25:51;;;;;;;19.17;7.72;;;17.50;77.70;;;16.90;61.96;100889.72;5060811;28;20036;-79
2023/05/23 07:28:25;;;;;;;17.67;8.18;;;17.50;78.10;;;16.91;61.80;100893.25;5082580;28;20050;-79
2023/05/23 07:30:56;;;;;;;17.95;8.70;;;17.60;78.00;;;16.87;61.65;100890.22;5077110;28;20472;-79
2023/05/23 07:33:23;;;;;;;16.40;8.00;;;17.50;78.00;;;16.90;61.74;100899.69;5067090;28;20678;-80
2023/05/23 07:35:53;;;;;;;25.73;8.73;;;17.50;78.00;;;16.87;61.61;100898.28;5054900;28;20056;-80
2023/05/23 07:38:20;;;;;;;16.50;8.27;;;17.50;77.80;;;16.88;61.85;100905.31;5067581;28;20047;-81
2023/05/23 07:40:48;;;;;;;16.17;7.75;;;17.50;78.10;;;16.89;61.94;100901.56;5084121;28;20063;-80
2023/05/23 07:43:15;;;;;;;14.77;8.02;;;17.60;78.20;;;16.90;61.71;100905.91;5066073;28;21344;-80
2023/05/23 07:45:42;;;;;;;16.83;8.20;;;17.50;77.90;;;16.88;61.67;100909.88;5057045;28;20079;-80
2023/05/23 07:48:11;;;;;;;20.33;7.88;;;17.50;77.90;;;16.88;61.74;100916.09;5061472;28;20085;-80
2023/05/23 07:50:39;;;;;;;18.83;7.85;;;17.60;78.00;;;16.88;61.62;100920.66;5060063;28;20037;-81
2023/05/23 07:53:09;;;;;;;19.17;7.70;;;17.50;77.90;;;16.87;61.68;100925.22;5082299;28;20119;-80
2023/05/23 07:55:37;;;;;;;17.15;7.82;;;17.50;77.90;;;16.84;61.55;100919.53;5060705;28;20887;-80
2023/05/23 07:58:04;;;;;;;16.92;7.78;;;17.50;77.80;;;16.79;61.13;100933.72;5061734;28;20048;-80
2023/05/23 08:00:32;;;;;;;15.10;7.60;;;17.50;77.40;;;16.77;60.88;100932.31;5063687;28;20048;-79
2023/05/23 08:03:08;;;;;;;20.55;8.00;;;17.40;77.00;;;16.77;61.00;100935.00;5059399;28;20040;-79
2023/05/23 08:05:41;;;;;;;18.05;7.93;;;17.40;77.20;;;16.79;61.22;100932.88;5066556;28;20531;-79
2023/05/23 08:08:09;;;;;;;22.73;7.70;;;17.40;77.30;;;16.79;61.45;100944.50;5070816;28;20051;-79
2023/05/23 08:10:38;;;;;;;15.60;7.90;;;17.40;77.60;;;16.78;61.36;100942.84;5062189;28;20048;-77
2023/05/23 08:13:10;;;;;;;15.90;7.13;;;17.40;77.40;;;16.79;61.46;100941.81;5067405;28;20397;-80
2023/05/23 08:15:48;;;;;;;14.00;6.65;;;17.40;77.60;;;16.76;61.10;100947.66;5067811;28;20044;-79
2023/05/23 08:18:18;;;;;;;16.08;7.82;;;17.40;77.40;;;16.75;61.23;100954.09;5058304;28;20052;-79
2023/05/23 08:20:45;;;;;;;17.05;8.30;;;17.40;77.50;;;16.74;61.40;100949.78;5064613;28;20068;-80
2023/05/23 08:23:14;;;;;;;19.90;7.80;;;17.40;77.70;;;16.72;61.63;100954.56;5068765;28;20040;-78
2023/05/23 08:25:41;;;;;;;15.68;8.00;;;17.40;77.90;;;16.74;61.59;100971.34;5072287;22;20040;-82
2023/05/23 08:28:08;;;;;;;18.92;7.68;;;17.40;77.80;;;16.75;61.40;100962.19;5047635;28;20406;-82
2023/05/23 08:30:45;;;;;;;17.42;8.25;;;17.40;77.60;;;16.75;61.16;100964.06;5039781;28;20041;-83
2023/05/23 08:33:13;;;;;;;17.77;7.55;;;17.40;77.40;;;16.68;61.20;100970.38;5025080;28;20045;-81
2023/05/23 08:35:43;;;;;;;16.33;8.75;;;17.40;77.60;;;16.68;61.02;100962.28;5031851;28;20048;-82
2023/05/23 08:38:14;;;;;;;18.17;9.65;;;17.30;77.40;;;16.60;60.93;100970.75;5021929;28;20106;-81
2023/05/23 08:40:52;;;;;;;21.73;9.00;;;17.30;77.40;;;16.58;61.31;100972.84;5025447;28;20140;-83
2023/05/23 08:43:21;;;;;;;20.05;9.13;;;17.30;77.60;;;16.58;61.39;100972.03;5030927;28;20532;-82
2023/05/23 08:45:51;;;;;;;17.38;8.73;;;17.30;77.80;;;16.54;61.24;100974.38;5040486;28;20094;-82
2023/05/23 08:48:21;;;;;;;16.77;8.07;;;17.20;77.60;;;16.51;61.72;100982.13;5048169;28;20064;-80
2023/05/23 08:50:52;;;;;;;17.27;9.05;;;17.20;78.10;;;16.53;61.59;100985.41;5027951;28;20052;-82
2023/05/23 08:53:28;;;;;;;15.27;7.53;;;17.20;77.90;;;16.50;61.42;100978.63;5027163;28;20554;-83
2023/05/23 08:56:04;;;;;;;15.18;7.28;;;17.20;77.60;;;16.49;61.32;100987.75;5024708;28;20045;-81
2023/05/23 08:58:41;;;;;;;17.10;7.28;;;17.10;77.80;;;16.47;61.52;100987.16;5032273;28;20056;-82
2023/05/23 09:01:10;;;;;;;15.98;7.63;;;17.10;77.90;;;16.40;61.51;100986.50;5024696;28;20072;-81
2023/05/23 09:03:39;;;;;;;15.75;6.97;;;17.10;77.90;;;16.40;61.47;100991.88;5041279;28;20052;-81
2023/05/23 09:06:12;;;;;;;15.32;6.93;;;17.00;77.80;;;16.35;61.64;101000.66;5025418;28;20055;-84
2023/05/23 09:08:44;;;;;;;16.67;6.82;;;17.00;77.90;;;16.34;61.62;101001.69;5030341;28;20049;-82
2023/05/23 09:11:13;;;;;;;19.67;7.90;;;17.00;77.90;;;16.27;61.58;101006.41;5041109;28;20506;-82
2023/05/23 09:13:41;;;;;;;16.83;7.00;;;16.90;78.00;;;16.26;61.68;101007.47;5042052;28;20044;-84
2023/05/23 09:16:11;;;;;;;21.70;8.40;;;16.90;78.20;;;16.25;61.75;101007.69;5045062;28;20045;-81
2023/05/23 09:18:45;;;;;;;20.75;8.68;;;16.90;78.20;;;16.22;61.92;101017.06;5044933;28;20068;-81
2023/05/23 09:21:15;;;;;;;25.80;9.98;;;16.90;78.40;;;16.22;61.96;101023.25;5044115;28;20068;-82
2023/05/23 09:24:13;;;;;;;22.40;9.00;;;16.90;78.40;;;16.20;61.71;101022.69;5029033;28;20135;-82
2023/05/23 09:26:40;;;;;;;18.02;8.98;;;16.80;78.00;;;16.19;61.78;101030.97;5045578;28;20101;-80
2023/05/23 09:29:07;;;;;;;20.27;8.07;;;16.80;78.00;;;16.18;61.53;101024.78;5049401;28;20043;-81
2023/05/23 09:31:35;;;;;;;22.42;8.27;;;16.80;78.00;;;16.18;61.21;101021.25;5026055;28;20421;-82
2023/05/23 09:34:03;;;;;;;17.77;7.53;;;16.80;77.60;;;16.18;60.82;101024.78;5040119;28;20044;-82
2023/05/23 09:36:33;;;;;;;18.90;7.28;;;16.80;77.30;;;16.18;61.05;101023.97;5047062;28;20041;-83
2023/05/23 09:39:04;;;;;;;17.77;6.75;;;16.80;77.50;;;16.22;61.08;101025.13;5030181;28;20413;-83
2023/05/23 09:41:35;;;;;;;16.17;6.75;;;16.80;77.50;;;16.22;60.92;101027.81;5045051;28;20072;-81
2023/05/23 09:44:08;;;;;;;18.92;6.40;;;16.80;77.40;;;16.28;60.98;101017.97;5043582;28;20049;-80
2023/05/23 09:46:37;;;;;;;16.67;6.72;;;16.90;77.70;;;16.31;60.60;101023.72;5039242;28;20642;-83
2023/05/23 09:49:16;;;;;;;15.70;6.43;;;16.90;77.10;;;16.33;60.42;101026.16;5026635;28;20124;-84
2023/05/23 09:51:56;;;;;;;16.67;6.47;;;16.90;77.10;;;16.35;60.29;101030.28;5028126;28;20045;-82
2023/05/23 09:54:24;;;;;;;13.98;6.05;;;16.90;76.90;;;16.37;60.04;101032.72;5039721;28;20081;-82
2023/05/23 09:56:55;;;;;;;18.10;6.70;;;17.00;76.40;;;16.35;59.84;101027.59;5047955;28;20041;-81
2023/05/23 09:59:28;;;;;;;14.50;6.85;;;17.00;76.40;;;16.35;60.06;101024.09;5043300;28;20033;-80
2023/05/23 10:02:00;;;;;;;20.90;7.10;;;17.00;76.60;;;16.32;59.98;101030.75;5048641;28;20477;-82
2023/05/23 10:04:31;;;;;;;18.25;6.40;;;17.00;76.30;;;16.30;59.86;101037.41;5042568;28;20139;-81
2023/05/23 10:07:07;;;;;;;23.40;7.50;;;16.90;76.20;;;16.29;59.87;101033.06;5046269;28;20111;-81
2023/05/23 10:09:38;;;;;;;18.77;7.20;;;16.90;76.20;;;16.25;59.76;101046.22;5040312;28;20064;-83
2023/05/23 10:12:46;;;;;;;19.52;9.40;;;16.90;76.10;;;16.25;59.85;101053.44;5047688;28;20397;-81
2023/05/23 10:15:17;;;;;;;17.50;8.02;;;16.90;76.30;;;16.18;59.75;101051.69;5049780;28;20519;-80
2023/05/23 10:18:06;;;;;;;19.95;8.52;;;16.80;76.20;;;16.15;59.74;101046.78;5050828;28;20068;-81
2023/05/23 10:20:36;;;;;;;19.52;8.57;;;16.80;76.10;;;16.14;59.54;101052.38;5043473;28;20111;-81